Time;durP1;ratioP1;P1;durP2;ratioP2;P2;SDS_P1;SDS_P2;PMS_P1;PMS_P2;Temp;Humidity;BMP_temperature;BMP_pressure;BME280_temperature;BME280_humidity;BME280_pressure;Samples;Min_cycle;Max_cycle;Signal;HPM_P1;HPM_P2
2023/08/28 00:01:07;;;;;;;13.85;8.20;;;;;;;-143.21;45.58;70720.03;5028378;28;20218;-85
2023/08/28 00:03:37;;;;;;;12.05;8.00;;;;;;;-143.21;45.56;70725.97;5039144;28;20190;-84
2023/08/28 00:06:04;;;;;;;12.85;8.20;;;;;;;-143.21;45.98;70733.91;5029126;28;20217;-84
2023/08/28 00:08:31;;;;;;;11.73;8.00;;;;;;;-143.21;45.83;70737.88;5036116;28;20226;-84
2023/08/28 00:10:58;;;;;;;15.02;8.20;;;;;;;-143.21;46.04;70751.75;5036254;28;20208;-84
2023/08/28 00:13:24;;;;;;;10.05;7.03;;;;;;;-143.21;45.90;70749.78;5040055;28;20580;-84
2023/08/28 00:15:52;;;;;;;13.82;6.80;;;;;;;-143.21;46.36;70763.66;5037752;28;20202;-84
2023/08/28 00:18:19;;;;;;;11.25;6.65;;;;;;;-143.21;46.21;70771.56;5035644;28;20198;-84
2023/08/28 00:20:47;;;;;;;9.65;6.20;;;;;;;-143.21;46.23;70747.78;5036227;28;20233;-84
2023/08/28 00:23:14;;;;;;;10.88;6.43;;;;;;;-143.21;45.61;70747.78;5030318;28;20865;-84
2023/08/28 00:25:41;;;;;;;9.38;6.50;;;;;;;-143.21;45.91;70741.84;5029924;28;20229;-87
2023/08/28 00:28:08;;;;;;;17.27;6.40;;;;;;;-143.21;45.90;70747.78;5037633;28;20211;-83
2023/08/28 00:30:35;;;;;;;13.65;6.68;;;;;;;-143.21;46.19;70757.69;5037419;28;20687;-87
2023/08/28 00:33:02;;;;;;;11.43;6.65;;;;;;;-143.21;46.38;70767.63;5038754;28;20202;-83
2023/08/28 00:35:29;;;;;;;8.30;6.15;;;;;;;-143.21;46.58;70769.59;5044880;28;20638;-84
2023/08/28 00:37:57;;;;;;;13.82;6.85;;;;;;;-143.21;46.95;70779.50;5043354;28;20213;-84
2023/08/28 00:40:24;;;;;;;12.20;7.28;;;;;;;-143.21;46.48;70785.44;5041324;28;20205;-83
2023/08/28 00:42:51;;;;;;;10.13;6.85;;;;;;;-143.21;46.79;70797.34;5035895;28;20850;-83
2023/08/28 00:45:18;;;;;;;11.38;7.72;;;;;;;-143.21;46.52;70805.28;5037052;28;20289;-83
2023/08/28 00:47:46;;;;;;;10.32;6.90;;;;;;;-143.21;46.90;70815.19;5038359;28;20221;-83
2023/08/28 00:50:13;;;;;;;13.55;7.00;;;;;;;-143.21;47.02;70819.16;5036905;28;20233;-83
2023/08/28 00:52:40;;;;;;;10.07;7.32;;;;;;;-143.21;47.15;70817.16;5032305;28;21408;-83
2023/08/28 00:55:10;;;;;;;12.77;7.18;;;;;;;-143.21;47.33;70817.16;5040380;28;20669;-84
2023/08/28 00:57:37;;;;;;;16.08;6.88;;;;;;;-143.21;47.60;70811.22;5037470;28;20198;-83
2023/08/28 01:00:05;;;;;;;11.25;7.85;;;;;;;-143.21;47.93;70801.31;5041552;28;20198;-83
2023/08/28 01:02:32;;;;;;;16.40;8.75;;;;;;;-143.21;47.66;70807.25;5030625;28;20290;-82
2023/08/28 01:04:59;;;;;;;15.50;8.90;;;;;;;-143.21;47.76;70809.25;5038033;28;20684;-82
2023/08/28 01:07:31;;;;;;;11.98;7.72;;;;;;;-143.21;48.41;70815.19;5036739;28;20580;-82
2023/08/28 01:10:08;;;;;;;11.00;7.38;;;;;;;-143.21;48.42;70825.09;5034437;28;20222;-82
2023/08/28 01:12:46;;;;;;;13.55;8.20;;;;;;;-143.21;48.26;70833.03;5037228;28;20222;-83
2023/08/28 01:15:17;;;;;;;11.70;6.90;;;;;;;-143.21;48.13;70842.94;5033164;28;20195;-82
2023/08/28 01:17:46;;;;;;;10.68;6.82;;;;;;;-143.21;48.61;70846.91;5039277;28;20302;-82
2023/08/28 01:20:16;;;;;;;15.13;7.22;;;;;;;-143.21;48.58;70856.81;5039828;28;20235;-82
2023/08/28 01:22:59;;;;;;;12.55;8.05;;;;;;;-143.21;49.18;70858.78;5037268;28;20782;-83
2023/08/28 01:25:29;;;;;;;10.23;7.68;;;;;;;-143.21;49.69;70870.69;5032338;28;20265;-82
2023/08/28 01:27:57;;;;;;;12.07;7.25;;;;;;;-143.21;49.37;70870.69;5031936;28;20297;-83
2023/08/28 01:30:24;;;;;;;9.75;7.32;;;;;;;-143.21;49.28;70888.53;5041073;28;20218;-83
2023/08/28 01:32:51;;;;;;;12.73;7.43;;;;;;;-143.21;50.01;70890.50;5042907;28;20228;-83
2023/08/28 01:35:20;;;;;;;11.90;7.30;;;;;;;-143.21;50.47;70894.47;5039936;28;20201;-84
2023/08/28 01:38:03;;;;;;;9.50;7.68;;;;;;;-143.21;50.43;70888.53;5040105;28;20695;-83
2023/08/28 01:40:46;;;;;;;14.63;8.20;;;;;;;-143.21;50.63;70886.53;5037364;28;20288;-83
2023/08/28 01:43:16;;;;;;;14.10;8.63;;;;;;;-143.21;50.54;70898.44;5040620;28;20207;-83
2023/08/28 01:45:44;;;;;;;16.30;8.25;;;;;;;-143.21;50.94;70906.38;5036650;28;20293;-83
2023/08/28 01:48:11;;;;;;;10.07;7.05;;;;;;;-143.21;50.83;70900.41;5043109;28;20213;-83
2023/08/28 01:50:38;;;;;;;13.48;8.00;;;;;;;-143.21;51.80;70938.09;5031245;28;20237;-83
2023/08/28 01:53:05;;;;;;;11.25;7.05;;;;;;;-143.21;52.10;70961.88;5035280;28;20217;-83
2023/08/28 01:56:23;;;;;;;9.82;7.15;;;;;;;-143.21;52.32;70975.75;5037763;28;20202;-83
2023/08/28 01:58:54;;;;;;;14.95;8.02;;;;;;;-143.21;53.05;70987.66;5034117;28;20230;-83
2023/08/28 02:01:21;;;;;;;13.50;7.65;;;;;;;-143.21;53.93;71023.34;5033517;28;20677;-84
2023/08/28 02:03:48;;;;;;;13.05;6.85;;;;;;;-143.21;54.78;71049.09;5022352;28;20198;-84
2023/08/28 02:06:15;;;;;;;14.25;7.75;;;;;;;-143.21;54.80;71037.22;5029163;28;20203;-84
2023/08/28 02:08:42;;;;;;;15.73;7.93;;;;;;;-143.21;54.65;71025.31;5026458;28;20206;-82
2023/08/28 02:11:09;;;;;;;11.98;7.30;;;;;;;-143.21;54.60;71017.38;5029366;28;20244;-83
2023/08/28 02:13:36;;;;;;;11.80;7.25;;;;;;;-143.21;54.72;71019.38;5037351;28;20901;-84
2023/08/28 02:16:05;;;;;;;13.00;7.38;;;;;;;-143.21;54.33;70999.53;5038574;28;20308;-84
2023/08/28 02:18:32;;;;;;;12.68;8.23;;;;;;;-143.21;54.38;70999.53;5030816;28;20207;-84
2023/08/28 02:20:59;;;;;;;12.80;7.55;;;;;;;-143.21;54.14;70999.53;5045105;28;20257;-84
2023/08/28 02:23:27;;;;;;;10.82;7.03;;;;;;;-143.21;54.81;71019.38;5049186;28;20197;-84
2023/08/28 02:25:54;;;;;;;15.48;7.53;;;;;;;-143.21;55.53;71029.28;5045816;28;20202;-84
2023/08/28 02:28:21;;;;;;;13.60;7.97;;;;;;;-143.21;55.47;71027.28;5046350;28;20202;-84
2023/08/28 02:30:48;;;;;;;11.90;7.22;;;;;;;-143.21;55.52;71035.22;5048481;28;20230;-83
2023/08/28 02:33:17;;;;;;;11.80;7.50;;;;;;;-143.21;55.52;71031.25;5039830;28;20203;-84
2023/08/28 02:35:44;;;;;;;13.30;7.80;;;;;;;-143.21;55.56;71047.13;5038821;28;20202;-85
2023/08/28 02:38:11;;;;;;;10.98;6.68;;;;;;;-143.21;56.33;71080.81;5048204;28;20205;-84
2023/08/28 02:40:39;;;;;;;12.75;7.55;;;;;;;-143.21;56.96;71098.66;5044588;28;20216;-84
2023/08/28 02:43:06;;;;;;;14.63;8.10;;;;;;;-143.21;57.52;71110.56;5040110;28;20590;-84
2023/08/28 02:45:35;;;;;;;12.10;7.18;;;;;;;-143.21;57.47;71106.59;5043849;28;20688;-84
2023/08/28 02:48:03;;;;;;;12.35;7.28;;;;;;;-143.21;57.03;71086.75;5050522;28;20234;-85
2023/08/28 02:50:31;;;;;;;10.93;7.28;;;;;;;-143.21;56.79;71078.84;5040520;28;20260;-85
2023/08/28 02:52:58;;;;;;;13.07;7.72;;;;;;;-143.21;56.55;71074.88;5041362;28;21218;-85
2023/08/28 02:55:26;;;;;;;13.43;7.90;;;;;;;-143.21;56.53;71080.81;5041043;28;20199;-84
2023/08/28 02:57:52;;;;;;;16.05;8.20;;;;;;;-143.21;56.46;71078.84;5040529;28;20661;-84
2023/08/28 03:00:19;;;;;;;14.20;8.32;;;;;;;-143.21;56.64;71094.69;5036901;28;20198;-84
2023/08/28 03:02:47;;;;;;;13.02;8.23;;;;;;;-143.21;57.23;71110.56;5042528;28;20226;-88
2023/08/28 03:05:14;;;;;;;15.40;8.10;;;;;;;-143.21;57.50;71108.56;5049822;28;20218;-87
2023/08/28 03:07:42;;;;;;;13.85;8.35;;;;;;;-143.21;57.32;71114.53;5054357;28;20266;-87
2023/08/28 03:10:10;;;;;;;12.60;8.30;;;;;;;-143.21;57.24;71122.44;5055876;28;20225;-86
2023/08/28 03:12:37;;;;;;;20.40;9.00;;;;;;;-143.21;57.48;71134.34;5059788;28;20206;-86
2023/08/28 03:15:05;;;;;;;12.27;8.48;;;;;;;-143.21;57.84;71136.31;5046797;28;20296;-82
2023/08/28 03:17:32;;;;;;;17.80;9.52;;;;;;;-143.21;57.74;71132.38;5038267;28;20202;-82
2023/08/28 03:19:58;;;;;;;20.25;13.88;;;;;;;-143.21;57.20;71136.31;5029486;28;20707;-82
2023/08/28 03:22:25;;;;;;;27.90;15.48;;;;;;;-143.21;57.27;71138.31;5027625;28;20257;-83
2023/08/28 03:24:54;;;;;;;22.52;13.52;;;;;;;-143.21;57.67;71134.34;5026841;28;20211;-84
2023/08/28 03:27:21;;;;;;;19.20;11.55;;;;;;;-143.21;57.21;71126.41;5025482;28;20217;-84
2023/08/28 03:29:48;;;;;;;15.15;10.10;;;;;;;-143.21;56.89;71124.44;5028500;28;20284;-83
2023/08/28 03:32:15;;;;;;;17.90;10.05;;;;;;;-143.21;56.87;71116.50;5028117;28;20207;-86
2023/08/28 03:34:42;;;;;;;19.33;9.70;;;;;;;-143.21;56.66;71120.47;5026499;28;20211;-84
2023/08/28 03:37:08;;;;;;;14.55;9.18;;;;;;;-143.21;56.58;71128.41;5028437;28;20198;-84
2023/08/28 03:39:35;;;;;;;20.65;9.85;;;;;;;-143.21;57.27;71152.19;5033800;28;20203;-83
2023/08/28 03:42:04;;;;;;;18.08;9.10;;;;;;;-143.21;57.61;71160.13;5030175;28;20207;-83
2023/08/28 03:44:33;;;;;;;16.80;9.23;;;;;;;-143.21;58.24;71160.13;5017918;28;20206;-83
2023/08/28 03:46:59;;;;;;;17.73;9.75;;;;;;;-143.21;58.41;71156.16;5014353;28;20211;-83
2023/08/28 03:49:27;;;;;;;16.48;10.05;;;;;;;-143.21;58.33;71156.16;5021820;28;20210;-83
2023/08/28 03:51:59;;;;;;;19.92;9.77;;;;;;;-143.21;58.18;71156.16;5029353;28;20257;-83
2023/08/28 03:54:26;;;;;;;15.95;10.57;;;;;;;-143.21;58.77;71166.06;5027443;28;20589;-83
2023/08/28 03:56:53;;;;;;;19.65;10.68;;;;;;;-143.21;58.87;71166.06;5027239;28;20202;-83
2023/08/28 03:59:21;;;;;;;20.38;10.35;;;;;;;-143.21;58.74;71172.00;5029491;28;20649;-83
2023/08/28 04:01:49;;;;;;;16.63;10.57;;;;;;;-143.21;58.95;71183.91;5028019;28;20209;-83
2023/08/28 04:04:16;;;;;;;17.45;10.13;;;;;;;-143.21;59.34;71185.88;5025200;28;20294;-83
2023/08/28 04:06:43;;;;;;;14.68;8.20;;;;;;;-143.21;59.19;71189.84;5012819;28;20903;-82
2023/08/28 04:09:10;;;;;;;16.40;8.68;;;;;;;-143.21;59.13;71193.81;5029289;28;20207;-84
2023/08/28 04:11:37;;;;;;;14.68;9.35;;;;;;;-143.21;59.34;71183.91;5030764;28;20227;-84
2023/08/28 04:14:03;;;;;;;16.38;8.80;;;;;;;-143.21;59.26;71185.88;5031995;28;20206;-85
2023/08/28 04:16:32;;;;;;;15.35;8.32;;;;;;;-143.21;59.50;71185.88;5033407;28;20206;-85
2023/08/28 04:18:59;;;;;;;14.65;8.10;;;;;;;-143.21;59.45;71181.94;5036175;28;20207;-88
2023/08/28 04:21:26;;;;;;;13.57;7.75;;;;;;;-143.21;59.39;71183.91;5034910;28;20206;-88
2023/08/28 04:23:53;;;;;;;15.20;8.05;;;;;;;-143.21;59.07;71175.97;5033888;28;20236;-88
2023/08/28 04:26:19;;;;;;;10.82;7.57;;;;;;;-143.21;59.13;71181.94;5032881;28;20207;-87
2023/08/28 04:28:46;;;;;;;15.55;8.63;;;;;;;-143.21;59.05;71183.91;5031562;28;20223;-88
2023/08/28 04:31:13;;;;;;;14.30;8.65;;;;;;;-143.21;59.29;71185.88;5035095;28;20250;-88
2023/08/28 04:33:42;;;;;;;15.63;9.10;;;;;;;-143.21;59.03;71164.09;5032066;28;20211;-88
2023/08/28 04:36:08;;;;;;;14.82;8.70;;;;;;;-143.21;58.17;71134.34;5035289;28;20199;-88
2023/08/28 04:38:35;;;;;;;17.23;9.00;;;;;;;-143.21;58.00;71134.34;5031990;28;20211;-88
2023/08/28 04:41:02;;;;;;;14.27;8.35;;;;;;;-143.21;57.84;71126.41;5031250;28;20234;-89
2023/08/28 04:43:29;;;;;;;14.15;8.55;;;;;;;-143.21;57.88;71136.31;5031487;28;20202;-88
2023/08/28 04:45:56;;;;;;;13.43;8.77;;;;;;;-143.21;57.96;71150.22;5031717;28;20748;-88
2023/08/28 04:48:23;;;;;;;16.27;8.73;;;;;;;-143.21;58.28;71160.13;5030541;28;20199;-87
2023/08/28 04:50:51;;;;;;;15.52;8.85;;;;;;;-143.21;58.39;71166.06;5029885;28;20234;-88
2023/08/28 04:53:18;;;;;;;15.05;8.77;;;;;;;-143.21;58.74;71174.00;5031207;28;20199;-87
2023/08/28 04:55:45;;;;;;;13.43;8.68;;;;;;;-143.21;58.81;71177.97;5030842;28;20226;-86
2023/08/28 04:58:15;;;;;;;15.32;9.07;;;;;;;-143.21;58.89;71183.91;5030840;28;20279;-84
2023/08/28 05:00:42;;;;;;;12.55;8.50;;;;;;;-143.21;58.82;71181.94;5029502;28;20685;-85
2023/08/28 05:03:09;;;;;;;16.17;9.38;;;;;;;-143.21;58.83;71187.88;5029427;28;21477;-89
2023/08/28 05:05:36;;;;;;;18.23;9.80;;;;;;;-143.21;58.85;71187.88;5029517;28;20211;-87
2023/08/28 05:08:05;;;;;;;14.88;8.23;;;;;;;-143.21;58.69;71187.88;5030493;28;20222;-85
2023/08/28 05:10:32;;;;;;;16.38;8.38;;;;;;;-143.21;58.32;71174.00;5030215;28;20724;-85
2023/08/28 05:13:00;;;;;;;16.38;8.40;;;;;;;-143.21;58.23;71166.06;5032447;28;20209;-86
2023/08/28 05:15:27;;;;;;;14.70;7.90;;;;;;;-143.21;57.92;71154.16;5030192;28;20203;-81
2023/08/28 05:18:03;;;;;;;13.70;7.50;;;;;;;-143.21;56.95;71116.50;5031247;28;20207;-87
2023/08/28 05:20:30;;;;;;;23.05;8.02;;;;;;;-143.21;56.09;71086.75;5028499;28;20713;-82
2023/08/28 05:22:57;;;;;;;11.35;7.68;;;;;;;-143.21;55.47;71064.97;5029004;28;20207;-83
2023/08/28 05:25:26;;;;;;;12.77;8.27;;;;;;;-143.21;55.32;71080.81;5029305;28;20202;-87
2023/08/28 05:27:53;;;;;;;11.18;7.47;;;;;;;-143.21;55.46;71084.78;5029815;28;20632;-87
2023/08/28 05:30:20;;;;;;;12.77;7.10;;;;;;;-143.21;55.19;71090.72;5029984;28;20433;-86
2023/08/28 05:32:47;;;;;;;17.38;7.45;;;;;;;-143.21;55.49;71094.69;5029539;28;20589;-86
2023/08/28 05:35:14;;;;;;;12.32;8.05;;;;;;;-143.21;55.74;71100.66;5030788;28;20206;-87
2023/08/28 05:37:43;;;;;;;11.20;7.55;;;;;;;-143.21;55.66;71098.66;5030148;28;20700;-86
2023/08/28 05:40:14;;;;;;;13.63;7.32;;;;;;;-143.21;55.79;71092.72;5030492;28;20221;-86
2023/08/28 05:42:43;;;;;;;14.43;7.50;;;;;;;-143.21;55.79;71098.66;5029373;28;20203;-86
2023/08/28 05:45:11;;;;;;;14.52;8.30;;;;;;;-143.21;55.95;71096.69;5031785;28;20203;-87
2023/08/28 05:47:40;;;;;;;11.70;7.90;;;;;;;-143.21;56.10;71098.66;5030671;28;21430;-87
2023/08/28 05:50:08;;;;;;;13.40;7.88;;;;;;;-143.21;56.21;71088.75;5030738;28;20312;-87
2023/08/28 05:52:36;;;;;;;17.13;8.73;;;;;;;-143.21;56.27;71068.94;5029506;28;20203;-87
2023/08/28 05:55:04;;;;;;;17.65;7.93;;;;;;;-143.21;55.33;71023.34;5031571;28;20207;-87
2023/08/28 05:57:30;;;;;;;12.50;7.50;;;;;;;-143.21;54.75;70999.53;5030021;28;20201;-86
2023/08/28 05:59:59;;;;;;;12.75;7.78;;;;;;;-143.21;53.95;70971.78;5030263;28;20199;-87
2023/08/28 06:02:26;;;;;;;18.20;7.65;;;;;;;-143.21;53.20;70965.84;5030190;28;20238;-87
2023/08/28 06:04:53;;;;;;;14.35;7.85;;;;;;;-143.21;53.54;70963.84;5029969;28;20352;-87
2023/08/28 06:07:20;;;;;;;13.80;7.35;;;;;;;-143.21;53.67;70971.78;5030062;28;20202;-87
2023/08/28 06:09:47;;;;;;;18.35;8.18;;;;;;;-143.21;54.12;70983.69;5030154;28;20199;-87
2023/08/28 06:12:14;;;;;;;15.32;7.75;;;;;;;-143.21;54.21;70989.63;5027022;28;20223;-86
2023/08/28 06:14:41;;;;;;;15.30;8.40;;;;;;;-143.21;53.97;70989.63;5031531;28;20580;-87
2023/08/28 06:17:09;;;;;;;15.32;8.00;;;;;;;-143.21;53.78;70993.59;5029306;28;20350;-88
2023/08/28 06:19:36;;;;;;;12.93;7.97;;;;;;;-143.21;53.60;70995.56;5029225;28;20226;-88
2023/08/28 06:22:04;;;;;;;18.80;8.38;;;;;;;-143.21;54.00;71001.53;5030153;28;20277;-88
2023/08/28 06:24:31;;;;;;;19.20;7.82;;;;;;;-143.21;53.72;70997.56;5028952;28;20228;-88
2023/08/28 06:26:58;;;;;;;15.18;8.10;;;;;;;-143.21;54.14;70997.56;5028816;28;20229;-89
2023/08/28 06:29:26;;;;;;;16.83;7.80;;;;;;;-143.21;54.20;70989.63;5029246;28;20289;-88
2023/08/28 06:31:53;;;;;;;12.50;7.50;;;;;;;-143.21;53.96;70983.69;5028530;28;20740;-88
2023/08/28 06:34:22;;;;;;;14.57;7.38;;;;;;;-143.21;53.36;70944.03;5030313;28;20195;-87
2023/08/28 06:36:49;;;;;;;13.25;7.72;;;;;;;-143.21;52.34;70904.38;5030694;28;20229;-87
2023/08/28 06:39:16;;;;;;;14.85;7.80;;;;;;;-143.21;51.98;70868.72;5026512;28;20202;-87
2023/08/28 06:41:46;;;;;;;18.10;7.85;;;;;;;-143.21;51.40;70864.75;5029388;28;20212;-88
2023/08/28 06:44:13;;;;;;;14.63;8.30;;;;;;;-143.21;51.28;70868.72;5029339;28;20209;-88
2023/08/28 06:46:40;;;;;;;15.90;8.38;;;;;;;-143.21;51.40;70872.66;5027099;28;20206;-84
2023/08/28 06:49:06;;;;;;;13.75;8.02;;;;;;;-143.21;50.91;70874.66;5025892;28;20207;-83
2023/08/28 06:51:35;;;;;;;16.63;8.80;;;;;;;-143.21;51.19;70880.59;5025931;28;20223;-83
2023/08/28 06:54:02;;;;;;;16.88;8.23;;;;;;;-143.21;50.91;70868.72;5027311;28;20206;-82
2023/08/28 06:56:29;;;;;;;13.55;7.68;;;;;;;-143.21;50.43;70858.78;5027292;28;20206;-82
2023/08/28 06:58:56;;;;;;;18.35;8.13;;;;;;;-143.21;50.37;70852.84;5027219;28;20209;-83
2023/08/28 07:01:23;;;;;;;20.15;8.70;;;;;;;-143.21;49.97;70838.97;5030964;28;20205;-83
2023/08/28 07:03:50;;;;;;;13.25;8.20;;;;;;;-143.21;50.23;70837.00;5031169;28;20202;-82
2023/08/28 07:06:18;;;;;;;17.20;7.25;;;;;;;-143.21;50.52;70827.06;5025139;28;20327;-82
2023/08/28 07:08:46;;;;;;;11.63;7.70;;;;;;;-143.21;49.76;70821.13;5026636;28;20220;-85
2023/08/28 07:11:13;;;;;;;17.20;8.23;;;;;;;-143.21;49.89;70811.22;5027819;28;20222;-83
2023/08/28 07:13:40;;;;;;;15.85;7.50;;;;;;;-143.21;49.68;70797.34;5027684;28;20210;-83
2023/08/28 07:16:07;;;;;;;10.82;6.75;;;;;;;-143.21;48.95;70771.56;5029379;28;20199;-85
2023/08/28 07:18:33;;;;;;;10.57;7.13;;;;;;;-143.21;48.58;70749.78;5028610;28;20214;-83
2023/08/28 07:21:00;;;;;;;20.95;7.57;;;;;;;-143.21;48.49;70743.81;5043216;28;20235;-84
2023/08/28 07:23:27;;;;;;;12.70;7.65;;;;;;;-143.21;48.43;70731.94;5043766;28;20278;-82
2023/08/28 07:25:56;;;;;;;10.35;7.35;;;;;;;-143.21;48.05;70722.03;5051482;28;20198;-85
2023/08/28 07:28:23;;;;;;;13.18;7.35;;;;;;;-143.21;47.74;70710.13;5048855;28;20233;-83
2023/08/28 07:30:50;;;;;;;18.75;7.95;;;;;;;-143.21;47.26;70688.31;5035723;28;20325;-84
2023/08/28 07:33:17;;;;;;;15.40;7.45;;;;;;;-143.21;46.80;70684.34;5035756;28;20201;-84
2023/08/28 07:35:48;;;;;;;13.43;7.35;;;;;;;-143.21;46.53;70680.38;5044053;28;20268;-83
2023/08/28 07:38:15;;;;;;;17.13;7.70;;;;;;;-143.21;46.86;70670.47;5050963;28;20236;-89
2023/08/28 07:40:42;;;;;;;18.20;7.38;;;;;;;-143.21;46.79;70654.63;5045368;28;20714;-83
2023/08/28 07:43:12;;;;;;;11.27;6.50;;;;;;;-143.21;46.95;70650.66;5074109;28;20201;-84
2023/08/28 07:45:39;;;;;;;10.48;6.70;;;;;;;-143.21;46.90;70638.75;5077280;28;20629;-86
2023/08/28 07:48:07;;;;;;;17.83;7.22;;;;;;;-143.21;46.29;70636.78;5075052;28;20232;-84
2023/08/28 07:50:35;;;;;;;13.80;6.88;;;;;;;-143.21;46.06;70630.84;5075250;28;20637;-85
2023/08/28 07:53:03;;;;;;;15.98;6.63;;;;;;;-143.21;46.22;70628.84;5074887;28;20652;-85
2023/08/28 07:55:31;;;;;;;14.45;6.53;;;;;;;-143.21;46.60;70618.94;5056984;28;20189;-84
2023/08/28 07:57:58;;;;;;;17.17;6.75;;;;;;;-143.21;46.03;70613.00;5075718;28;20226;-85
2023/08/28 08:00:26;;;;;;;11.73;6.10;;;;;;;-143.21;46.00;70597.13;5058214;28;20198;-84
2023/08/28 08:02:53;;;;;;;11.38;6.47;;;;;;;-143.21;45.43;70593.19;5055090;28;20202;-85
2023/08/28 08:05:20;;;;;;;12.75;6.43;;;;;;;-143.21;45.39;70577.31;5063197;28;20205;-85
2023/08/28 08:07:47;;;;;;;9.95;6.55;;;;;;;-143.21;45.22;70565.44;5054656;28;20206;-85
2023/08/28 08:10:15;;;;;;;10.68;6.60;;;;;;;-143.21;44.73;70557.50;5074481;28;20209;-85
2023/08/28 08:12:42;;;;;;;18.23;7.13;;;;;;;-143.21;44.35;70557.50;5074559;28;20224;-86
2023/08/28 08:15:09;;;;;;;12.90;6.50;;;;;;;-143.21;44.35;70547.59;5075719;28;20196;-84
2023/08/28 08:17:38;;;;;;;11.60;6.50;;;;;;;-143.21;44.08;70533.72;5074855;28;20790;-85
2023/08/28 08:20:09;;;;;;;10.10;6.53;;;;;;;-143.21;44.28;70533.72;5073534;28;20225;-84
2023/08/28 08:22:37;;;;;;;11.70;6.57;;;;;;;-143.21;44.44;70517.84;5074497;28;20201;-83
2023/08/28 08:25:05;;;;;;;12.85;6.95;;;;;;;-143.21;43.71;70502.00;5074736;28;20259;-85
2023/08/28 08:27:32;;;;;;;13.82;6.75;;;;;;;-143.21;43.89;70496.06;5074520;28;20196;-84
2023/08/28 08:29:59;;;;;;;10.45;6.75;;;;;;;-143.21;43.58;70480.19;5074193;28;20204;-84
2023/08/28 08:32:26;;;;;;;14.55;7.60;;;;;;;-143.21;43.27;70464.34;5074477;28;20217;-84
2023/08/28 08:34:56;;;;;;;11.85;6.72;;;;;;;-143.21;43.34;70458.41;5074541;28;20189;-84
2023/08/28 08:37:23;;;;;;;14.32;7.55;;;;;;;-143.21;43.05;70442.53;5074470;28;20268;-84
2023/08/28 08:39:50;;;;;;;14.02;6.38;;;;;;;-143.21;42.77;70432.63;5075618;28;20193;-84
2023/08/28 08:42:17;;;;;;;10.63;6.45;;;;;;;-143.21;42.46;70420.72;5074485;28;20194;-83
2023/08/28 08:44:44;;;;;;;15.90;7.03;;;;;;;-143.21;42.41;70408.84;5074313;28;20194;-83
2023/08/28 08:47:12;;;;;;;9.60;6.32;;;;;;;-143.21;41.86;70396.94;5074057;28;20207;-84
2023/08/28 08:49:40;;;;;;;15.80;6.40;;;;;;;-143.21;41.83;70383.06;5073899;28;20209;-83
2023/08/28 08:52:10;;;;;;;14.85;6.22;;;;;;;-143.21;41.38;70365.25;5074171;28;20221;-84
2023/08/28 08:54:41;;;;;;;11.90;6.60;;;;;;;-143.21;41.22;70349.38;5065150;28;20244;-84
2023/08/28 08:57:12;;;;;;;12.25;6.30;;;;;;;-143.21;40.76;70337.50;5054053;28;20201;-83
2023/08/28 08:59:39;;;;;;;10.52;6.30;;;;;;;-143.21;40.80;70329.56;5053930;28;20212;-83
2023/08/28 09:02:08;;;;;;;8.63;5.80;;;;;;;-143.21;40.78;70303.78;5054633;28;20205;-88
2023/08/28 09:04:36;;;;;;;9.40;5.80;;;;;;;-143.21;40.45;70287.94;5054816;28;20256;-88
2023/08/28 09:07:04;;;;;;;10.85;6.13;;;;;;;-143.21;40.07;70262.19;5054396;28;20217;-88
2023/08/28 09:09:33;;;;;;;9.95;5.97;;;;;;;-143.21;39.78;70242.34;5054100;28;20684;-89
2023/08/28 09:12:00;;;;;;;13.85;6.20;;;;;;;-143.21;39.78;70216.59;5054634;28;20213;-89
2023/08/28 09:14:28;;;;;;;11.98;6.03;;;;;;;-143.21;38.93;70198.75;5056099;28;20707;-90
2023/08/28 09:16:55;;;;;;;11.57;6.10;;;;;;;-143.21;38.39;70178.94;5054716;28;20202;-89
2023/08/28 09:19:22;;;;;;;15.38;6.22;;;;;;;-143.21;38.42;70165.06;5054405;28;20627;-91
2023/08/28 09:21:50;;;;;;;11.68;6.50;;;;;;;-143.21;38.18;70145.25;5054412;28;20198;-90
2023/08/28 09:24:22;;;;;;;9.05;5.68;;;;;;;-143.21;37.77;70125.41;5054274;28;20214;-90
2023/08/28 09:26:53;;;;;;;11.23;5.50;;;;;;;-143.21;37.06;70111.53;5054185;28;20197;-90
2023/08/28 09:29:25;;;;;;;7.18;5.60;;;;;;;-143.21;37.00;70087.75;5066553;28;20630;-93
2023/08/28 09:32:01;;;;;;;13.73;6.10;;;;;;;-143.21;35.99;70077.84;5057824;28;20229;-93
2023/08/28 09:34:36;;;;;;;8.55;4.82;;;;;;;-143.21;35.61;70062.00;5054699;28;20186;-91
2023/08/28 09:37:04;;;;;;;8.40;4.97;;;;;;;-143.21;35.51;70042.19;5057224;28;20188;-90
2023/08/28 09:39:32;;;;;;;9.35;4.97;;;;;;;-143.21;35.34;70016.41;5054353;28;20686;-89
2023/08/28 09:42:00;;;;;;;8.00;5.18;;;;;;;-143.21;35.03;70004.53;5054067;28;20277;-89
2023/08/28 09:44:27;;;;;;;11.43;5.40;;;;;;;-143.21;34.42;69990.66;5054015;28;20202;-90
2023/08/28 09:46:55;;;;;;;9.88;5.20;;;;;;;-143.21;34.53;69962.91;5054245;28;20198;-91
2023/08/28 09:49:22;;;;;;;8.43;5.15;;;;;;;-143.21;33.69;69931.19;5054077;28;20218;-89
2023/08/28 09:51:52;;;;;;;11.05;5.38;;;;;;;-143.21;33.69;69901.47;5053514;28;20225;-89
2023/08/28 09:54:19;;;;;;;7.15;5.30;;;;;;;-143.21;33.16;69885.63;5055288;28;20221;-89
2023/08/28 09:56:46;;;;;;;11.40;5.18;;;;;;;-143.21;32.60;69855.91;5053300;28;20226;-91
2023/08/28 09:59:15;;;;;;;10.43;4.68;;;;;;;-143.21;32.01;69844.00;5053395;28;20206;-90
2023/08/28 10:01:42;;;;;;;6.88;4.00;;;;;;;-143.21;31.87;69822.22;5053563;28;20205;-89
2023/08/28 10:04:10;;;;;;;6.85;4.45;;;;;;;-143.21;31.64;69818.25;5050343;28;20194;-88
2023/08/28 10:06:40;;;;;;;8.23;4.90;;;;;;;-143.21;31.14;69802.38;5052538;28;20213;-89
2023/08/28 10:09:15;;;;;;;6.78;4.75;;;;;;;-143.21;30.87;69794.47;5067893;28;20201;-89
2023/08/28 10:11:45;;;;;;;11.77;4.55;;;;;;;-143.21;31.10;69770.69;5072976;28;20703;-89
2023/08/28 10:14:14;;;;;;;7.68;4.78;;;;;;;-143.21;30.61;69764.75;5072640;28;20214;-89
2023/08/28 10:16:45;;;;;;;9.45;4.38;;;;;;;-143.21;30.58;69738.97;5073151;28;20223;-90
2023/08/28 10:19:21;;;;;;;8.75;4.85;;;;;;;-143.21;30.72;69713.22;5057444;28;20193;-89
2023/08/28 10:21:51;;;;;;;8.57;4.40;;;;;;;-143.21;30.07;69713.22;5074969;28;20201;-89
2023/08/28 10:24:20;;;;;;;8.00;4.50;;;;;;;-143.21;29.98;69703.31;5042820;28;20304;-88
2023/08/28 10:26:48;;;;;;;7.68;4.28;;;;;;;-143.21;30.05;69685.47;5052880;28;20281;-89
2023/08/28 10:29:19;;;;;;;7.40;4.13;;;;;;;-143.21;29.48;69675.56;5052646;28;20237;-89
2023/08/28 10:31:46;;;;;;;6.75;4.28;;;;;;;-143.21;29.96;69643.84;5052502;28;20225;-89
2023/08/28 10:34:13;;;;;;;6.70;4.20;;;;;;;-143.21;29.23;69624.03;5061243;28;20210;-89
2023/08/28 10:36:42;;;;;;;7.35;4.65;;;;;;;-143.21;29.07;69592.34;5059285;28;20736;-89
2023/08/28 10:39:11;;;;;;;8.35;4.20;;;;;;;-143.21;29.23;69564.59;5053185;28;20194;-90
2023/08/28 10:41:39;;;;;;;8.15;4.18;;;;;;;-143.21;28.86;69566.56;5063648;28;20224;-89
2023/08/28 10:44:07;;;;;;;11.93;4.43;;;;;;;-143.21;29.02;69546.75;5064605;28;20665;-89
2023/08/28 10:46:36;;;;;;;6.47;4.47;;;;;;;-143.21;28.29;69530.91;5060618;28;20652;-90
2023/08/28 10:49:05;;;;;;;7.90;3.90;;;;;;;-143.21;28.52;69515.06;5071975;28;20209;-85
2023/08/28 10:51:35;;;;;;;8.20;4.25;;;;;;;-143.21;27.94;69528.94;5072815;28;20250;-85
2023/08/28 10:54:04;;;;;;;11.30;4.05;;;;;;;-143.21;27.87;69519.03;5067078;28;20697;-85
2023/08/28 10:56:32;;;;;;;7.28;4.03;;;;;;;-143.21;27.94;69521.00;5051741;28;20190;-85
2023/08/28 10:59:24;;;;;;;11.05;3.97;;;;;;;-143.21;27.64;69475.44;5051575;28;20202;-84
2023/08/28 11:01:56;;;;;;;8.77;4.22;;;;;;;-143.21;27.30;69445.69;5056041;28;20224;-84
2023/08/28 11:04:24;;;;;;;6.65;4.05;;;;;;;-143.21;27.28;69429.84;5073313;28;20189;-83
2023/08/28 11:06:51;;;;;;;6.35;4.50;;;;;;;-143.21;27.25;69398.16;5071735;28;20645;-84
2023/08/28 11:09:35;;;;;;;8.82;4.03;;;;;;;-143.21;27.57;69382.28;5071601;28;20198;-83
2023/08/28 11:12:27;;;;;;;8.35;4.22;;;;;;;-143.21;26.95;69362.47;5057595;28;20240;-83
2023/08/28 11:15:03;;;;;;;9.27;4.07;;;;;;;-143.21;26.90;69338.69;5051468;28;20202;-83